createdAt,value
2019-03-23T00:01:55.372Z,97034.42
2019-03-23T00:04:21.515Z,97031.84
2019-03-23T00:06:47.824Z,97036.87
2019-03-23T00:09:15.149Z,97032.62
2019-03-23T00:11:41.364Z,97028.52
2019-03-23T00:14:07.452Z,97027.81
2019-03-23T00:16:34.485Z,97028.23
2019-03-23T00:19:00.592Z,97019.06
2019-03-23T00:21:26.861Z,97023.77
2019-03-23T00:23:53.046Z,97022.04
2019-03-23T00:26:19.396Z,97021.61
2019-03-23T00:28:45.559Z,97020.84
2019-03-23T00:31:11.732Z,97022.94
2019-03-23T00:33:37.884Z,97019.39
2019-03-23T00:36:05.152Z,97016.66
2019-03-23T00:38:31.308Z,97014.72
2019-03-23T00:40:57.512Z,97013.73
2019-03-23T00:43:23.615Z,97016.05
2019-03-23T00:45:49.841Z,97016.94
2019-03-23T00:48:15.987Z,97016.53
2019-03-23T00:50:42.205Z,97017.86
2019-03-23T00:53:08.728Z,97019.46
2019-03-23T00:55:35.149Z,97014.64
2019-03-23T00:58:01.850Z,97014.59
2019-03-23T01:00:28.695Z,97008.53
2019-03-23T01:02:55.484Z,97005.31
2019-03-23T01:05:22.339Z,97000.50
2019-03-23T01:07:49.081Z,96997.72
2019-03-23T01:10:16.016Z,96997.11
2019-03-23T01:12:42.762Z,97001.06
2019-03-23T01:15:12.004Z,96997.04
2019-03-23T01:17:38.760Z,96993.89
2019-03-23T01:20:07.973Z,96988.70
2019-03-23T01:22:34.816Z,96984.22
2019-03-23T01:25:01.692Z,96979.92
2019-03-23T01:27:28.645Z,96985.48
2019-03-23T01:29:55.421Z,96984.09
2019-03-23T01:32:22.268Z,96981.08
2019-03-23T01:34:49.045Z,96981.39
2019-03-23T01:37:15.308Z,96979.08
2019-03-23T01:39:41.478Z,96980.06
2019-03-23T01:42:07.623Z,96977.77
2019-03-23T01:44:33.848Z,96976.03
2019-03-23T01:46:59.989Z,96969.05
2019-03-23T01:49:26.144Z,96971.69
2019-03-23T01:51:52.302Z,96971.92
2019-03-23T01:54:18.492Z,96967.52
2019-03-23T01:56:44.635Z,96968.92
2019-03-23T01:59:10.837Z,96969.06
2019-03-23T02:01:36.994Z,96971.00
2019-03-23T02:04:03.159Z,96966.63
2019-03-23T02:06:29.320Z,96972.73
2019-03-23T02:08:55.474Z,96963.34
2019-03-23T02:11:21.626Z,96963.14
2019-03-23T02:13:47.851Z,96961.82
2019-03-23T02:16:14.043Z,96967.37
2019-03-23T02:18:40.271Z,96964.73
2019-03-23T02:21:06.434Z,96965.92
2019-03-23T02:23:32.673Z,96965.21
2019-03-23T02:25:58.822Z,96968.36
2019-03-23T02:28:25.190Z,96964.26
2019-03-23T02:30:51.455Z,96965.14
2019-03-23T02:33:17.680Z,96970.00
2019-03-23T02:35:43.898Z,96967.63
2019-03-23T02:38:10.193Z,96968.88
2019-03-23T02:40:36.366Z,96967.08
2019-03-23T02:43:02.878Z,96970.00
2019-03-23T02:45:30.518Z,96963.89
2019-03-23T02:47:56.952Z,96968.47
2019-03-23T02:50:23.062Z,96962.98
2019-03-23T02:52:49.388Z,96963.45
2019-03-23T02:55:15.488Z,96960.81
2019-03-23T02:57:41.713Z,96961.66
2019-03-23T03:00:12.486Z,96961.11
2019-03-23T03:02:38.808Z,96958.54
2019-03-23T03:05:08.510Z,96956.03
2019-03-23T03:07:41.844Z,96961.11
2019-03-23T03:10:07.122Z,96958.23
2019-03-23T03:12:33.465Z,96958.81
2019-03-23T03:14:59.647Z,96958.73
2019-03-23T03:17:25.912Z,96954.91
2019-03-23T03:19:52.190Z,96959.25
2019-03-23T03:22:18.461Z,96961.93
2019-03-23T03:24:44.681Z,96957.91
2019-03-23T03:27:10.837Z,96953.46
2019-03-23T03:29:37.179Z,96960.61
2019-03-23T03:32:03.381Z,96959.56
2019-03-23T03:34:29.575Z,96960.11
2019-03-23T03:36:55.732Z,96964.48
2019-03-23T03:39:22.049Z,96970.27
2019-03-23T03:41:48.253Z,96964.06
2019-03-23T03:44:14.572Z,96956.41
2019-03-23T03:46:40.797Z,96963.77
2019-03-23T03:49:12.631Z,96964.61
2019-03-23T03:51:35.199Z,96953.70
2019-03-23T03:54:01.400Z,96950.55
2019-03-23T03:56:27.661Z,96947.61
2019-03-23T03:58:54.036Z,96946.08
2019-03-23T04:01:20.358Z,96951.30
2019-03-23T04:03:46.683Z,96943.38
2019-03-23T04:06:12.790Z,96941.38
2019-03-23T04:08:38.982Z,96942.05
2019-03-23T04:11:05.155Z,96935.69
2019-03-23T04:13:31.340Z,96936.60
2019-03-23T04:15:57.512Z,96938.84
2019-03-23T04:18:23.826Z,96934.09
2019-03-23T04:20:49.929Z,96934.47
2019-03-23T04:23:16.166Z,96935.41
2019-03-23T04:25:42.297Z,96933.42
2019-03-23T04:28:08.548Z,96937.08
2019-03-23T04:30:34.780Z,96935.89
2019-03-23T04:33:00.894Z,96938.70
2019-03-23T04:35:27.120Z,96934.47
2019-03-23T04:37:53.284Z,96937.65
2019-03-23T04:40:19.506Z,96936.53
2019-03-23T04:42:45.612Z,96943.55
2019-03-23T04:45:12.020Z,96947.03
2019-03-23T04:47:38.134Z,96947.91
2019-03-23T04:50:07.164Z,96939.85
2019-03-23T04:52:33.331Z,96944.16
2019-03-23T04:54:59.582Z,96943.68
2019-03-23T04:57:25.887Z,96950.42
2019-03-23T04:59:52.998Z,96941.31
2019-03-23T05:02:19.220Z,96947.00
2019-03-23T05:04:45.341Z,96949.30
2019-03-23T05:07:11.576Z,96948.44
2019-03-23T05:09:37.700Z,96953.41
2019-03-23T05:12:03.994Z,96952.84
2019-03-23T05:14:30.112Z,96959.57
2019-03-23T05:16:56.323Z,96957.03
2019-03-23T05:19:22.428Z,96959.17
2019-03-23T05:21:48.767Z,96958.22
2019-03-23T05:24:14.991Z,96958.76
2019-03-23T05:26:41.166Z,96963.06
2019-03-23T05:29:07.338Z,96960.08
2019-03-23T05:31:33.667Z,96964.24
2019-03-23T05:33:59.982Z,96961.73
2019-03-23T05:36:26.200Z,96964.30
2019-03-23T05:38:52.311Z,96974.23
2019-03-23T05:41:18.541Z,96968.07
2019-03-23T05:43:44.716Z,96968.07
2019-03-23T05:46:10.861Z,96971.77
2019-03-23T05:48:37.092Z,96971.77
2019-03-23T05:51:03.224Z,96976.44
2019-03-23T05:53:29.445Z,96969.05
2019-03-23T05:55:55.636Z,96975.14
2019-03-23T05:58:21.874Z,96975.99
2019-03-23T06:00:48.093Z,96968.99
2019-03-23T06:03:14.312Z,96973.93
2019-03-23T06:05:40.555Z,96974.01
2019-03-23T06:08:06.784Z,96977.91
2019-03-23T06:10:32.949Z,96980.99
2019-03-23T06:12:59.158Z,96980.15
2019-03-23T06:15:25.351Z,96980.32
2019-03-23T06:17:51.576Z,96977.89
2019-03-23T06:20:17.844Z,96989.50
2019-03-23T06:22:45.007Z,96984.70
2019-03-23T06:25:11.255Z,96985.98
2019-03-23T06:27:37.431Z,96981.41
2019-03-23T06:30:06.442Z,96984.99
2019-03-23T06:32:32.562Z,96988.67
2019-03-23T06:34:58.797Z,96989.51
2019-03-23T06:37:24.905Z,96980.96
2019-03-23T06:39:51.140Z,96986.73
2019-03-23T06:42:17.248Z,96985.27
2019-03-23T06:44:43.490Z,96990.70
2019-03-23T06:47:09.666Z,96994.17
2019-03-23T06:49:35.997Z,96988.70
2019-03-23T06:52:02.216Z,96981.19
2019-03-23T06:54:28.733Z,96984.73
2019-03-23T06:56:54.889Z,96985.34
2019-03-23T06:59:21.206Z,96987.52
2019-03-23T07:01:47.425Z,96987.72
2019-03-23T07:04:13.632Z,96985.91
2019-03-23T07:06:39.796Z,96986.47
2019-03-23T07:09:15.795Z,96986.16
2019-03-23T07:11:34.024Z,96984.27
2019-03-23T07:14:00.194Z,96980.77
2019-03-23T07:16:26.423Z,96982.22
2019-03-23T07:18:52.573Z,96977.53
2019-03-23T07:21:19.295Z,96979.31
2019-03-23T07:23:45.451Z,96982.89
2019-03-23T07:26:11.677Z,96983.34
2019-03-23T07:28:37.769Z,96986.44
2019-03-23T07:31:04.279Z,96990.68
2019-03-23T07:33:30.430Z,96986.30
2019-03-23T07:35:56.682Z,96984.23
2019-03-23T07:38:22.785Z,96981.98
2019-03-23T07:40:49.022Z,96980.59
2019-03-23T07:43:15.304Z,96981.02
2019-03-23T07:45:41.467Z,96981.41
2019-03-23T07:48:07.651Z,96986.81
2019-03-23T07:50:33.920Z,96994.23
2019-03-23T07:53:00.019Z,96992.30
2019-03-23T07:55:26.266Z,96994.34
2019-03-23T07:57:52.354Z,96996.03
2019-03-23T08:00:19.560Z,96990.33
2019-03-23T08:02:45.866Z,96991.37
2019-03-23T08:05:12.194Z,96989.44
2019-03-23T08:07:38.443Z,96993.28
2019-03-23T08:10:05.610Z,96993.69
2019-03-23T08:12:31.867Z,97001.20
2019-03-23T08:14:58.184Z,96992.67
2019-03-23T08:17:24.436Z,96991.89
2019-03-23T08:19:51.690Z,96994.95
2019-03-23T08:22:17.858Z,96993.84
2019-03-23T08:24:45.042Z,97001.84
2019-03-23T08:27:11.255Z,96995.09
2019-03-23T08:29:37.649Z,96996.13
2019-03-23T08:32:03.914Z,96998.02
2019-03-23T08:34:30.245Z,96993.43
2019-03-23T08:36:57.033Z,96994.61
2019-03-23T08:39:23.289Z,96995.81
2019-03-23T08:41:49.567Z,97002.98
2019-03-23T08:44:15.743Z,96994.36
2019-03-23T08:46:41.884Z,96993.38
2019-03-23T08:49:08.240Z,96993.56
2019-03-23T08:51:34.399Z,96991.92
2019-03-23T08:54:00.601Z,96989.11
2019-03-23T08:56:26.789Z,96997.25
2019-03-23T08:58:53.352Z,96990.09
2019-03-23T09:01:19.625Z,96980.59
2019-03-23T09:03:52.548Z,96983.56
2019-03-23T09:06:13.841Z,96976.70
2019-03-23T09:08:41.054Z,96973.97
2019-03-23T09:11:07.378Z,96974.73
2019-03-23T09:13:40.659Z,96974.33
2019-03-23T09:16:02.529Z,96973.56
2019-03-23T09:18:29.034Z,96977.94
2019-03-23T09:20:55.273Z,96971.84
2019-03-23T09:23:21.440Z,96966.09
2019-03-23T09:25:47.679Z,96958.95
2019-03-23T09:28:14.885Z,96961.06
2019-03-23T09:30:41.327Z,96962.02
2019-03-23T09:33:07.491Z,96955.97
2019-03-23T09:35:33.850Z,96957.41
2019-03-23T09:37:59.989Z,96960.41
2019-03-23T09:40:26.210Z,96958.34
2019-03-23T09:42:52.455Z,96956.85
2019-03-23T09:45:18.885Z,96957.66
2019-03-23T09:47:45.164Z,96949.48
2019-03-23T09:50:11.661Z,96957.55
2019-03-23T09:52:37.967Z,96953.73
2019-03-23T09:55:06.398Z,96953.76
2019-03-23T09:57:32.502Z,96953.20
2019-03-23T09:59:58.788Z,96958.45
2019-03-23T10:02:26.065Z,96956.45
2019-03-23T10:04:52.445Z,96958.87
2019-03-23T10:07:19.293Z,96964.36
2019-03-23T10:09:46.076Z,96950.77
2019-03-23T10:12:12.249Z,96962.47
2019-03-23T10:14:38.902Z,96952.76
2019-03-23T10:17:05.173Z,96957.40
2019-03-23T10:19:31.420Z,96945.91
2019-03-23T10:21:58.690Z,96946.92
2019-03-23T10:24:25.106Z,96953.19
2019-03-23T10:26:52.304Z,96944.83
2019-03-23T10:29:18.743Z,96959.22
2019-03-23T10:31:44.894Z,96950.91
2019-03-23T10:34:11.073Z,96947.52
2019-03-23T10:36:37.229Z,96949.20
2019-03-23T10:39:04.661Z,96944.19
2019-03-23T10:41:31.095Z,96944.52
2019-03-23T10:43:57.320Z,96940.97
2019-03-23T10:46:25.119Z,96939.80
2019-03-23T10:48:52.092Z,96943.95
2019-03-23T10:51:18.200Z,96941.52
2019-03-23T10:53:45.025Z,96943.12
2019-03-23T10:56:11.150Z,96942.34
2019-03-23T10:58:37.367Z,96933.43
2019-03-23T11:01:03.724Z,96935.42
2019-03-23T11:03:29.903Z,96932.91
2019-03-23T11:05:56.157Z,96935.73
2019-03-23T11:08:22.405Z,96929.21
2019-03-23T11:10:48.560Z,96933.45
2019-03-23T11:13:14.765Z,96930.20
2019-03-23T11:15:40.912Z,96926.55
2019-03-23T11:18:07.117Z,96927.05
2019-03-23T11:20:33.270Z,96923.14
2019-03-23T11:23:00.631Z,96925.59
2019-03-23T11:25:26.834Z,96915.81
2019-03-23T11:27:53.342Z,96918.27
2019-03-23T11:30:20.190Z,96918.55
2019-03-23T11:32:46.606Z,96919.99
2019-03-23T11:35:12.859Z,96922.70
2019-03-23T11:37:40.022Z,96921.94
2019-03-23T11:40:08.855Z,96920.57
2019-03-23T11:42:35.247Z,96916.80
2019-03-23T11:45:02.067Z,96917.70
2019-03-23T11:47:29.433Z,96908.35
2019-03-23T11:49:55.558Z,96908.86
2019-03-23T11:52:22.513Z,96912.33
2019-03-23T11:54:48.666Z,96909.77
2019-03-23T11:57:14.910Z,96912.19
2019-03-23T11:59:41.057Z,96894.74
2019-03-23T12:02:07.301Z,96904.94
2019-03-23T12:04:33.578Z,96895.23
2019-03-23T12:06:59.746Z,96893.16
2019-03-23T12:09:27.935Z,96890.48
2019-03-23T12:11:54.658Z,96889.56
2019-03-23T12:14:20.832Z,96888.58
2019-03-23T12:16:47.018Z,96882.92
2019-03-23T12:19:13.236Z,96883.14
2019-03-23T12:21:39.727Z,96880.05
2019-03-23T12:24:05.897Z,96883.67
2019-03-23T12:26:32.178Z,96877.38
2019-03-23T12:28:58.292Z,96878.45
2019-03-23T12:31:24.521Z,96877.17
2019-03-23T12:33:50.630Z,96877.42
2019-03-23T12:36:17.056Z,96875.38
2019-03-23T12:38:43.322Z,96875.89
2019-03-23T12:41:18.553Z,96868.30
2019-03-23T12:43:37.559Z,96852.59
2019-03-23T12:46:03.995Z,96866.94
2019-03-23T12:48:30.129Z,96874.89
2019-03-23T12:50:56.369Z,96867.73
2019-03-23T12:53:22.516Z,96863.23
2019-03-23T12:55:49.077Z,96862.22
2019-03-23T12:58:15.224Z,96869.95
2019-03-23T13:00:41.672Z,96858.83
2019-03-23T13:03:07.881Z,96855.63
2019-03-23T13:05:34.591Z,96850.70
2019-03-23T13:08:00.973Z,96855.45
2019-03-23T13:10:27.133Z,96850.47
2019-03-23T13:12:53.311Z,96851.27
2019-03-23T13:15:19.564Z,96851.20
2019-03-23T13:17:45.906Z,96851.80
2019-03-23T13:20:12.675Z,96847.98
2019-03-23T13:22:38.998Z,96842.06
2019-03-23T13:25:07.016Z,96842.44
2019-03-23T13:27:33.222Z,96847.77
2019-03-23T13:29:59.416Z,96841.60
2019-03-23T13:32:25.661Z,96835.30
2019-03-23T13:34:51.807Z,96839.97
2019-03-23T13:37:18.055Z,96838.75
2019-03-23T13:39:44.250Z,96832.91
2019-03-23T13:42:10.561Z,96827.29
2019-03-23T13:44:36.812Z,96828.09
2019-03-23T13:47:03.146Z,96823.53
2019-03-23T13:49:29.377Z,96819.56
2019-03-23T13:51:56.650Z,96816.96
2019-03-23T13:54:22.901Z,96815.71
2019-03-23T13:56:49.057Z,96823.58
2019-03-23T13:59:15.281Z,96816.59
2019-03-23T14:01:41.510Z,96818.10
2019-03-23T14:04:07.701Z,96813.25
2019-03-23T14:06:33.855Z,96817.16
2019-03-23T14:09:00.075Z,96819.20
2019-03-23T14:11:26.165Z,96820.48
2019-03-23T14:13:52.393Z,96823.37
2019-03-23T14:16:18.540Z,96814.97
2019-03-23T14:18:44.741Z,96814.79
2019-03-23T14:21:10.996Z,96818.61
2019-03-23T14:23:37.111Z,96815.59
2019-03-23T14:26:04.299Z,96818.70
2019-03-23T14:28:30.728Z,96815.08
2019-03-23T14:30:56.982Z,96815.59
2019-03-23T14:33:23.105Z,96820.84
2019-03-23T14:35:49.354Z,96809.69
2019-03-23T14:38:15.513Z,96810.29
2019-03-23T14:40:41.757Z,96813.92
2019-03-23T14:43:07.855Z,96811.33
2019-03-23T14:45:34.175Z,96815.78
2019-03-23T14:48:00.340Z,96822.72
2019-03-23T14:50:26.587Z,96817.80
2019-03-23T14:52:52.770Z,96809.59
2019-03-23T14:55:19.001Z,96812.44
2019-03-23T14:57:45.178Z,96808.37
2019-03-23T15:00:14.497Z,96809.88
2019-03-23T15:02:40.657Z,96817.03
2019-03-23T15:05:07.194Z,96814.98
2019-03-23T15:07:33.302Z,96809.55
2019-03-23T15:09:59.528Z,96810.58
2019-03-23T15:12:25.652Z,96818.69
2019-03-23T15:14:51.895Z,96813.58
2019-03-23T15:17:18.030Z,96818.17
2019-03-23T15:19:44.243Z,96815.43
2019-03-23T15:22:10.381Z,96819.70
2019-03-23T15:24:36.591Z,96819.74
2019-03-23T15:27:02.865Z,96822.00
2019-03-23T15:29:29.374Z,96817.64
2019-03-23T15:31:55.558Z,96819.68
2019-03-23T15:34:21.716Z,96824.28
2019-03-23T15:36:47.879Z,96829.70
2019-03-23T15:39:14.085Z,96830.37
2019-03-23T15:41:40.188Z,96828.07
2019-03-23T15:44:06.433Z,96832.97
2019-03-23T15:46:32.599Z,96826.52
2019-03-23T15:48:58.829Z,96832.63
2019-03-23T15:51:24.990Z,96835.50
2019-03-23T15:53:52.250Z,96838.47
2019-03-23T15:56:18.408Z,96841.67
2019-03-23T15:58:44.583Z,96844.67
2019-03-23T16:01:10.767Z,96845.91
2019-03-23T16:03:36.937Z,96847.16
2019-03-23T16:06:03.234Z,96849.70
2019-03-23T16:08:30.514Z,96849.22
2019-03-23T16:10:56.817Z,96854.28
2019-03-23T16:13:23.007Z,96855.15
2019-03-23T16:15:49.175Z,96864.37
2019-03-23T16:18:15.471Z,96867.38
2019-03-23T16:20:41.642Z,96865.26
2019-03-23T16:23:08.126Z,96872.73
2019-03-23T16:25:34.295Z,96885.01
2019-03-23T16:28:01.586Z,96885.01
2019-03-23T16:30:29.237Z,96880.16
2019-03-23T16:32:55.457Z,96882.78
2019-03-23T16:35:21.563Z,96888.34
2019-03-23T16:37:47.833Z,96892.45
2019-03-23T16:40:14.222Z,96899.74
2019-03-23T16:42:45.239Z,96898.37
2019-03-23T16:45:09.160Z,96906.37
2019-03-23T16:47:35.657Z,96903.77
2019-03-23T16:50:03.231Z,96901.47
2019-03-23T16:52:29.553Z,96907.36
2019-03-23T16:54:55.828Z,96903.70
2019-03-23T16:57:22.050Z,96904.67
2019-03-23T16:59:48.213Z,96914.84
2019-03-23T17:02:14.364Z,96916.88
2019-03-23T17:04:40.580Z,96918.73
2019-03-23T17:07:06.783Z,96917.58
2019-03-23T17:09:33.011Z,96925.84
2019-03-23T17:11:59.103Z,96930.31
2019-03-23T17:14:25.364Z,96931.48
2019-03-23T17:16:52.479Z,96935.76
2019-03-23T17:19:18.684Z,96939.50
2019-03-23T17:21:44.866Z,96945.58
2019-03-23T17:24:11.030Z,96954.36
2019-03-23T17:26:37.175Z,96952.58
2019-03-23T17:29:03.447Z,96956.29
2019-03-23T17:31:29.609Z,96953.18
2019-03-23T17:33:55.757Z,96959.56
2019-03-23T17:36:21.960Z,96962.92
2019-03-23T17:38:48.215Z,96964.79
2019-03-23T17:41:15.493Z,96969.45
2019-03-23T17:43:41.872Z,96972.46
2019-03-23T17:46:08.149Z,96982.09
2019-03-23T17:48:34.304Z,96983.09
2019-03-23T17:51:00.613Z,96989.41
2019-03-23T17:53:26.772Z,96991.56
2019-03-23T17:55:52.960Z,96995.20
2019-03-23T17:58:19.122Z,96998.02
2019-03-23T18:00:45.299Z,97005.97
2019-03-23T18:03:11.622Z,97008.30
2019-03-23T18:05:38.970Z,97018.25
2019-03-23T18:08:05.293Z,97013.91
2019-03-23T18:10:31.388Z,97017.85
2019-03-23T18:12:57.712Z,97025.83
2019-03-23T18:15:23.901Z,97022.53
2019-03-23T18:17:51.255Z,97030.22
2019-03-23T18:20:17.718Z,97036.55
2019-03-23T18:22:44.101Z,97039.38
2019-03-23T18:25:10.571Z,97039.22
2019-03-23T18:27:36.785Z,97046.50
2019-03-23T18:30:15.767Z,97044.28
2019-03-23T18:32:41.994Z,97050.38
2019-03-23T18:35:08.131Z,97057.55
2019-03-23T18:37:34.438Z,97066.77
2019-03-23T18:40:00.685Z,97073.32
2019-03-23T18:42:26.975Z,97085.89
2019-03-23T18:44:53.179Z,97088.32
2019-03-23T18:47:19.460Z,97097.72
2019-03-23T18:49:45.662Z,97097.79
2019-03-23T18:52:11.772Z,97104.27
2019-03-23T18:54:38.012Z,97108.71
2019-03-23T18:57:04.338Z,97107.02
2019-03-23T18:59:30.556Z,97113.91
2019-03-23T19:01:56.730Z,97121.50
2019-03-23T19:04:22.994Z,97122.44
2019-03-23T19:06:49.218Z,97129.13
2019-03-23T19:09:15.333Z,97124.22
2019-03-23T19:11:41.548Z,97124.97
2019-03-23T19:14:07.647Z,97124.97
2019-03-23T19:16:33.864Z,97133.26
2019-03-23T19:19:00.020Z,97129.98
2019-03-23T19:21:26.294Z,97136.50
2019-03-23T19:23:52.524Z,97135.22
2019-03-23T19:26:18.766Z,97128.03
2019-03-23T19:28:45.003Z,97136.47
2019-03-23T19:31:11.116Z,97142.87
2019-03-23T19:33:37.381Z,97139.18
2019-03-23T19:36:03.606Z,97142.60
2019-03-23T19:38:29.824Z,97144.78
2019-03-23T19:40:55.917Z,97146.80
2019-03-23T19:43:22.126Z,97156.56
2019-03-23T19:45:48.381Z,97154.39
2019-03-23T19:48:14.607Z,97153.79
2019-03-23T19:50:40.797Z,97164.16
2019-03-23T19:53:07.055Z,97166.06
2019-03-23T19:55:33.412Z,97167.67
2019-03-23T19:57:59.703Z,97164.94
2019-03-23T20:00:25.864Z,97168.16
2019-03-23T20:02:52.110Z,97175.31
2019-03-23T20:05:18.238Z,97178.19
2019-03-23T20:07:45.231Z,97174.21
2019-03-23T20:10:11.938Z,97176.49
2019-03-23T20:12:38.143Z,97175.53
2019-03-23T20:15:06.564Z,97178.47
2019-03-23T20:17:32.800Z,97179.23
2019-03-23T20:19:58.904Z,97178.70
2019-03-23T20:22:25.126Z,97172.69
2019-03-23T20:24:51.252Z,97177.65
2019-03-23T20:27:17.448Z,97178.27
2019-03-23T20:29:43.563Z,97170.27
2019-03-23T20:32:10.069Z,97174.86
2019-03-23T20:34:36.235Z,97169.50
2019-03-23T20:37:02.644Z,97166.77
2019-03-23T20:39:29.080Z,97169.16
2019-03-23T20:41:55.322Z,97164.47
2019-03-23T20:44:21.433Z,97163.97
2019-03-23T20:46:48.169Z,97168.09
2019-03-23T20:49:15.177Z,97163.05
2019-03-23T20:51:42.819Z,97162.30
2019-03-23T20:54:08.923Z,97165.42
2019-03-23T20:56:35.166Z,97171.15
2019-03-23T20:59:01.325Z,97164.59
2019-03-23T21:01:27.679Z,97168.83
2019-03-23T21:03:53.965Z,97164.26
2019-03-23T21:06:20.188Z,97160.63
2019-03-23T21:08:46.292Z,97162.80
2019-03-23T21:11:12.999Z,97160.63
2019-03-23T21:13:39.259Z,97164.13
2019-03-23T21:16:05.553Z,97164.46
2019-03-23T21:18:31.665Z,97163.35
2019-03-23T21:20:57.979Z,97160.44
2019-03-23T21:23:24.080Z,97159.35
2019-03-23T21:25:50.295Z,97153.42
2019-03-23T21:28:16.454Z,97154.12
2019-03-23T21:30:42.691Z,97149.55
2019-03-23T21:33:08.988Z,97147.86
2019-03-23T21:35:35.147Z,97143.08
2019-03-23T21:38:01.364Z,97142.56
2019-03-23T21:40:27.536Z,97137.41
2019-03-23T21:42:53.799Z,97134.43
2019-03-23T21:45:19.937Z,97136.60
2019-03-23T21:47:46.118Z,97128.30
2019-03-23T21:50:12.498Z,97126.50
2019-03-23T21:52:38.669Z,97124.83
2019-03-23T21:55:05.426Z,97119.17
2019-03-23T21:57:31.587Z,97124.46
2019-03-23T21:59:57.778Z,97127.61
2019-03-23T22:02:23.951Z,97128.43
2019-03-23T22:04:50.118Z,97127.61
2019-03-23T22:07:16.444Z,97136.77
2019-03-23T22:09:42.558Z,97134.59
2019-03-23T22:12:08.771Z,97131.50
2019-03-23T22:14:41.648Z,97126.28
2019-03-23T22:17:03.059Z,97123.43
2019-03-23T22:19:29.429Z,97121.66
2019-03-23T22:21:55.651Z,97122.72
2019-03-23T22:24:21.759Z,97121.63
2019-03-23T22:26:47.980Z,97124.55
2019-03-23T22:29:15.301Z,97125.02
2019-03-23T22:31:41.482Z,97118.55
2019-03-23T22:34:07.646Z,97125.86
2019-03-23T22:36:33.814Z,97122.84
2019-03-23T22:39:01.096Z,97118.41
2019-03-23T22:41:27.571Z,97120.34
2019-03-23T22:43:54.073Z,97117.36
2019-03-23T22:46:20.473Z,97114.64
2019-03-23T22:48:46.732Z,97113.21
2019-03-23T22:51:12.899Z,97114.06
2019-03-23T22:53:39.047Z,97106.88
2019-03-23T22:56:05.261Z,97111.10
2019-03-23T22:58:31.412Z,97106.08
2019-03-23T23:00:57.908Z,97101.51
2019-03-23T23:03:24.155Z,97106.19
2019-03-23T23:05:50.490Z,97100.91
2019-03-23T23:08:16.871Z,97102.97
2019-03-23T23:10:43.128Z,97096.97
2019-03-23T23:13:09.308Z,97105.88
2019-03-23T23:15:35.596Z,97100.11
2019-03-23T23:18:01.871Z,97102.12
2019-03-23T23:20:28.088Z,97106.08
2019-03-23T23:22:54.305Z,97100.72
2019-03-23T23:25:20.524Z,97093.40
2019-03-23T23:27:46.901Z,97091.02
2019-03-23T23:30:14.827Z,97093.45
2019-03-23T23:32:40.927Z,97088.64
2019-03-23T23:35:07.970Z,97089.49
2019-03-23T23:37:34.078Z,97077.95
2019-03-23T23:40:00.403Z,97077.13
2019-03-23T23:42:26.672Z,97074.25
2019-03-23T23:44:53.937Z,97081.36
2019-03-23T23:47:20.115Z,97083.16
2019-03-23T23:49:46.345Z,97080.64
2019-03-23T23:52:12.497Z,97081.12
2019-03-23T23:54:38.666Z,97087.98
2019-03-23T23:57:04.845Z,97092.00
2019-03-23T23:59:31.003Z,97080.51
